San Juan de Alicante, Spain
Current Conditions -  °F | °C
As of 10:30 PM on Wednesday 17 Dec 2014 (Local Time) from LEAL Reporting Station
Clear Clear  
Wind Chill: 59°   Ceiling: Unl
Heat Index: 59°   Visibility: 6mi
Dew Point: 46°   Wind: 10mph
Humidity: 63%   Direction: 290°WNW
Pressure: 30.21"   Gusts: NA
Location:  38.4°N, 0.44°W
Report Text: LEAL 172130Z 29009KT 260V330 CAVOK 15/08 Q1023 NOSIG
Loading
Personal Weather Stations






























Interactive Weather Map New forecast layout! Learn more

10-Day Weather Forecast

Advertisements
Track Severe Weather on mobile